Main page
METAR-TAF:

METAR-TAF

Airports :

Getafe Air Base

Madrid-Getafe, Spain

latitude: 40-18N, longitude: 003-43W, elevation: 620 m

Current weather observation

The report was made 32 minutes ago, at 13:00 UTC
Wind 6 kt from the East/Northeast, varying between Northeast and Southeast
Temperature 17°C
Humidity 59%
Pressure 1018 hPa
Visibility 10 km or more
Few clouds at a height of 2500 ft, Towering cumulus.
Scattered clouds at a height of 4500 ft

METAR: LEGT 151300Z 07006KT 050V140 9999 FEW025TCU SCT045 17/09 Q1018

Time: 14:32 (13:32 UTC)

Forecast

The report was made 2 hours and 32 minutes ago, at 11:00 UTC
Forecast valid from 15 at 12 UTC to 15 at 21 UTC
Wind 5 kt from the East/Northeast
Visibility 10 km or more
Broken clouds at a height of 4000 ft
Probability 30% :
Temporary
from 15 at 15 UTC to 15 at 18 UTC
Scattered clouds at a height of 3000 ft, Towering cumulus.
rain showers

TAF: LEGT 151100Z 1512/1521 06005KT 9999 BKN040 PROB30 TEMPO 1515/1518 SHRA SCT030TCU

Weather observations and forecasts of more than 4000 airports (METAR and TAF reports).

The available stations are represented by yellow and red dots on the map.

Hover mouse over dot to see the name of the station.

Then click to see weather observations and forecasts.

To change the map : click on the green buttons with a black cross to zoom in, on the green button with a dash to zoom out, or on the green arrows for adjacent maps.


METAR-TAF: